Time;durP1;ratioP1;P1;durP2;ratioP2;P2;SDS_P1;SDS_P2;PMS_P1;PMS_P2;Temp;Humidity;BMP_temperature;BMP_pressure;BME280_temperature;BME280_humidity;BME280_pressure;Samples;Min_cycle;Max_cycle;Signal;HPM_P1;HPM_P2
2022/08/07 00:01:31;;;;;;;0.60;0.60;;;;;;;;;;5008757;28;20029;-71
2022/08/07 00:03:56;;;;;;;1.00;0.70;;;;;;;;;;5008790;28;20030;-71
2022/08/07 00:06:22;;;;;;;0.65;0.60;;;;;;;;;;5008982;28;20424;-71
2022/08/07 00:08:47;;;;;;;1.00;0.65;;;;;;;;;;5008961;28;20041;-71
2022/08/07 00:11:12;;;;;;;0.73;0.60;;;;;;;;;;5008776;28;20176;-71
2022/08/07 00:13:39;;;;;;;1.13;0.60;;;;;;;;;;5008243;28;20030;-71
2022/08/07 00:16:04;;;;;;;0.82;0.70;;;;;;;;;;5008785;28;20546;-71
2022/08/07 00:18:30;;;;;;;1.35;0.73;;;;;;;;;;5008822;28;20034;-71
2022/08/07 00:21:01;;;;;;;1.15;0.70;;;;;;;;;;5008444;28;20026;-71
2022/08/07 00:23:27;;;;;;;1.85;0.90;;;;;;;;;;5008537;28;20545;-71
2022/08/07 00:25:53;;;;;;;2.15;0.82;;;;;;;;;;5008685;28;20523;-71
2022/08/07 00:28:19;;;;;;;1.85;0.80;;;;;;;;;;5008610;28;20028;-71
2022/08/07 00:30:45;;;;;;;1.10;0.70;;;;;;;;;;5008360;28;20115;-70
2022/08/07 00:33:10;;;;;;;3.08;1.00;;;;;;;;;;5008766;28;20494;-71
2022/08/07 00:35:36;;;;;;;1.45;0.80;;;;;;;;;;5008480;28;20218;-71
2022/08/07 00:38:01;;;;;;;1.80;0.77;;;;;;;;;;5008366;28;20164;-71
2022/08/07 00:40:27;;;;;;;1.00;0.90;;;;;;;;;;5008412;28;20021;-71
2022/08/07 00:42:53;;;;;;;1.45;1.00;;;;;;;;;;5008331;28;20022;-71
2022/08/07 00:45:20;;;;;;;1.10;0.90;;;;;;;;;;5008659;28;20475;-71
2022/08/07 00:47:45;;;;;;;1.10;0.88;;;;;;;;;;5008957;28;20407;-70
2022/08/07 00:50:10;;;;;;;3.30;1.00;;;;;;;;;;5008273;28;20022;-71
2022/08/07 00:52:36;;;;;;;1.30;0.90;;;;;;;;;;5008303;28;20041;-71
2022/08/07 00:55:01;;;;;;;4.68;0.85;;;;;;;;;;5008461;28;20112;-71
2022/08/07 00:57:26;;;;;;;1.63;0.80;;;;;;;;;;4990770;28;20057;-71
2022/08/07 00:59:52;;;;;;;1.88;0.90;;;;;;;;;;5008200;28;20403;-71
2022/08/07 01:02:18;;;;;;;0.90;0.80;;;;;;;;;;5008101;28;20030;-71
2022/08/07 01:04:44;;;;;;;0.98;0.80;;;;;;;;;;5008295;28;20022;-71
2022/08/07 01:07:10;;;;;;;1.10;1.00;;;;;;;;;;5008102;28;20030;-71
2022/08/07 01:09:35;;;;;;;0.93;0.70;;;;;;;;;;5008123;28;20030;-70
2022/08/07 01:12:01;;;;;;;0.80;0.70;;;;;;;;;;5008209;28;20021;-71
2022/08/07 01:14:27;;;;;;;0.90;0.88;;;;;;;;;;5008138;28;20076;-71
2022/08/07 01:16:53;;;;;;;2.05;1.00;;;;;;;;;;5008291;28;20030;-71
2022/08/07 01:19:20;;;;;;;1.42;0.85;;;;;;;;;;5008138;28;20057;-71
2022/08/07 01:21:47;;;;;;;3.33;1.00;;;;;;;;;;5007876;28;20108;-71
2022/08/07 01:24:14;;;;;;;2.92;0.90;;;;;;;;;;5009608;28;20377;-71
2022/08/07 01:26:39;;;;;;;1.25;0.95;;;;;;;;;;5011765;28;20063;-71
2022/08/07 01:29:05;;;;;;;2.78;0.70;;;;;;;;;;5011897;28;20472;-71
2022/08/07 01:31:30;;;;;;;0.90;0.90;;;;;;;;;;5011501;28;20029;-71
2022/08/07 01:33:57;;;;;;;2.03;1.10;;;;;;;;;;5011662;28;20032;-71
2022/08/07 01:36:24;;;;;;;2.20;0.98;;;;;;;;;;5011557;28;20021;-71
2022/08/07 01:38:50;;;;;;;1.52;1.00;;;;;;;;;;5011870;28;20080;-71
2022/08/07 01:41:18;;;;;;;1.50;0.90;;;;;;;;;;5011405;28;20526;-71
2022/08/07 01:43:44;;;;;;;1.25;1.15;;;;;;;;;;5011692;28;20033;-71
2022/08/07 01:46:10;;;;;;;3.42;1.20;;;;;;;;;;5011487;28;20037;-71
2022/08/07 01:48:37;;;;;;;2.28;0.93;;;;;;;;;;5011557;28;20029;-71
2022/08/07 01:51:05;;;;;;;0.98;0.85;;;;;;;;;;5010976;28;20500;-71
2022/08/07 01:53:34;;;;;;;0.80;0.80;;;;;;;;;;5011326;28;20123;-70
2022/08/07 01:56:08;;;;;;;0.85;0.85;;;;;;;;;;5011334;28;20096;-71
2022/08/07 01:58:39;;;;;;;1.05;1.00;;;;;;;;;;5011171;28;20037;-71
2022/08/07 02:01:14;;;;;;;2.15;0.93;;;;;;;;;;5010977;28;20499;-71
2022/08/07 02:03:43;;;;;;;1.20;1.10;;;;;;;;;;5010907;28;20030;-71
2022/08/07 02:06:12;;;;;;;1.17;1.00;;;;;;;;;;5011000;28;20053;-71
2022/08/07 02:08:39;;;;;;;1.45;1.05;;;;;;;;;;5011129;28;20034;-71
2022/08/07 02:11:07;;;;;;;2.88;1.17;;;;;;;;;;5010747;28;20033;-71
2022/08/07 02:13:33;;;;;;;1.17;1.08;;;;;;;;;;5011005;28;20037;-71
2022/08/07 02:16:02;;;;;;;1.02;0.73;;;;;;;;;;5010926;28;20022;-71
2022/08/07 02:18:29;;;;;;;0.80;0.80;;;;;;;;;;5011226;28;20486;-71
2022/08/07 02:20:57;;;;;;;1.33;0.98;;;;;;;;;;5010606;28;20022;-71
2022/08/07 02:23:24;;;;;;;1.88;0.90;;;;;;;;;;5010658;28;20402;-71
2022/08/07 02:25:52;;;;;;;2.47;0.80;;;;;;;;;;5010800;28;20068;-71
2022/08/07 02:28:18;;;;;;;1.00;0.70;;;;;;;;;;5010781;28;20030;-71
2022/08/07 02:30:45;;;;;;;1.42;0.90;;;;;;;;;;5010355;28;20026;-71
2022/08/07 02:33:11;;;;;;;1.38;0.70;;;;;;;;;;5010887;28;20506;-71
2022/08/07 02:35:38;;;;;;;2.10;0.90;;;;;;;;;;5009998;28;20033;-71
2022/08/07 02:38:07;;;;;;;0.70;0.70;;;;;;;;;;5010748;28;20030;-71
2022/08/07 02:40:33;;;;;;;0.70;0.70;;;;;;;;;;5010751;28;20520;-70
2022/08/07 02:43:00;;;;;;;1.75;0.80;;;;;;;;;;5010208;28;20395;-71
2022/08/07 02:45:27;;;;;;;1.02;0.90;;;;;;;;;;5010378;28;20026;-71
2022/08/07 02:47:53;;;;;;;1.10;0.95;;;;;;;;;;5010364;28;20021;-71
2022/08/07 02:50:19;;;;;;;1.77;1.08;;;;;;;;;;5009972;28;20517;-71
2022/08/07 02:52:55;;;;;;;1.20;1.10;;;;;;;;;;5010164;28;20034;-71
2022/08/07 02:55:24;;;;;;;1.25;1.00;;;;;;;;;;5010324;28;20396;-71
2022/08/07 02:57:52;;;;;;;2.17;0.93;;;;;;;;;;5010194;28;20288;-71
2022/08/07 03:00:18;;;;;;;1.10;1.00;;;;;;;;;;5009856;28;20495;-71
2022/08/07 03:02:46;;;;;;;2.05;0.85;;;;;;;;;;5010056;28;20033;-71
2022/08/07 03:05:14;;;;;;;1.55;1.00;;;;;;;;;;5010049;28;20066;-71
2022/08/07 03:07:40;;;;;;;2.15;1.10;;;;;;;;;;5010457;28;20068;-71
2022/08/07 03:10:07;;;;;;;2.63;1.00;;;;;;;;;;5009541;28;20189;-71
2022/08/07 03:12:33;;;;;;;0.90;0.90;;;;;;;;;;5009859;28;20475;-71
2022/08/07 03:14:59;;;;;;;1.00;1.00;;;;;;;;;;5009729;28;20030;-71
2022/08/07 03:17:24;;;;;;;1.65;1.00;;;;;;;;;;5009741;28;20523;-71
2022/08/07 03:19:50;;;;;;;1.00;0.90;;;;;;;;;;5009891;28;20030;-71
2022/08/07 03:22:17;;;;;;;0.80;0.80;;;;;;;;;;5009522;28;20061;-71
2022/08/07 03:24:43;;;;;;;3.20;0.90;;;;;;;;;;5009418;28;20058;-71
2022/08/07 03:27:08;;;;;;;3.33;1.35;;;;;;;;;;5009775;28;20017;-71
2022/08/07 03:29:40;;;;;;;1.58;0.80;;;;;;;;;;5009388;28;20112;-71
2022/08/07 03:32:08;;;;;;;1.95;0.90;;;;;;;;;;5009396;28;20088;-71
2022/08/07 03:34:36;;;;;;;0.80;0.80;;;;;;;;;;5010089;28;20030;-71
2022/08/07 03:37:03;;;;;;;0.90;0.90;;;;;;;;;;5009376;28;20878;-71
2022/08/07 03:39:32;;;;;;;0.88;0.88;;;;;;;;;;5009227;28;20506;-71
2022/08/07 03:41:57;;;;;;;0.80;0.80;;;;;;;;;;5009341;28;20030;-71
2022/08/07 03:44:23;;;;;;;2.40;1.00;;;;;;;;;;5009097;28;20381;-71
2022/08/07 03:46:49;;;;;;;1.15;1.00;;;;;;;;;;5009057;28;20468;-70
2022/08/07 03:49:14;;;;;;;1.58;1.48;;;;;;;;;;5009206;28;20091;-71
2022/08/07 03:51:41;;;;;;;1.20;1.10;;;;;;;;;;5008807;28;20022;-71
2022/08/07 03:54:07;;;;;;;2.13;1.40;;;;;;;;;;5008909;28;20029;-71
2022/08/07 03:56:35;;;;;;;2.25;1.33;;;;;;;;;;5009107;28;20099;-71
2022/08/07 03:59:01;;;;;;;1.50;1.40;;;;;;;;;;5009061;28;20108;-70
2022/08/07 04:01:28;;;;;;;2.05;1.60;;;;;;;;;;5008615;28;20040;-71
2022/08/07 04:03:54;;;;;;;2.40;1.42;;;;;;;;;;5008690;28;20025;-71
2022/08/07 04:06:19;;;;;;;2.35;1.35;;;;;;;;;;5008815;28;20364;-71
2022/08/07 04:08:45;;;;;;;1.85;1.40;;;;;;;;;;5008895;28;20507;-70
2022/08/07 04:11:11;;;;;;;1.83;1.10;;;;;;;;;;5008515;28;20029;-70
2022/08/07 04:13:38;;;;;;;1.00;1.00;;;;;;;;;;5009105;28;20022;-70
2022/08/07 04:16:03;;;;;;;1.85;1.15;;;;;;;;;;5008711;28;20025;-71
2022/08/07 04:18:29;;;;;;;0.98;0.85;;;;;;;;;;5008723;28;20519;-71
2022/08/07 04:20:54;;;;;;;1.10;1.00;;;;;;;;;;5008424;28;20025;-70
2022/08/07 04:23:20;;;;;;;2.03;1.00;;;;;;;;;;5008813;28;20065;-71
2022/08/07 04:25:47;;;;;;;1.65;1.30;;;;;;;;;;5008665;28;20109;-71
2022/08/07 04:28:12;;;;;;;1.52;1.15;;;;;;;;;;5008768;28;20032;-71
2022/08/07 04:30:39;;;;;;;2.10;1.15;;;;;;;;;;5008602;28;20025;-70
2022/08/07 04:33:07;;;;;;;1.00;1.00;;;;;;;;;;5008614;28;20064;-71
2022/08/07 04:35:33;;;;;;;2.67;1.10;;;;;;;;;;5008477;28;20383;-71
2022/08/07 04:37:58;;;;;;;1.38;1.27;;;;;;;;;;5008523;28;20030;-71
2022/08/07 04:40:23;;;;;;;2.25;1.45;;;;;;;;;;5008358;28;20132;-71
2022/08/07 04:42:49;;;;;;;1.58;1.15;;;;;;;;;;5008583;28;20030;-71
2022/08/07 04:45:14;;;;;;;1.30;1.20;;;;;;;;;;5008359;28;20076;-71
2022/08/07 04:48:00;;;;;;;1.75;0.93;;;;;;;;;;5008426;28;20029;-71
2022/08/07 04:50:40;;;;;;;1.40;0.95;;;;;;;;;;5008351;28;20109;-71
2022/08/07 04:53:17;;;;;;;1.20;0.93;;;;;;;;;;5008356;28;20435;-71
2022/08/07 04:56:00;;;;;;;5.05;2.78;;;;;;;;;;5008288;28;20026;-71
2022/08/07 04:58:48;;;;;;;7.78;2.67;;;;;;;;;;5008763;28;20507;-72
2022/08/07 05:01:24;;;;;;;3.90;2.58;;;;;;;;;;5012062;28;20033;-72
2022/08/07 05:04:08;;;;;;;3.33;2.03;;;;;;;;;;5038683;23;20052;-69
2022/08/07 05:06:33;;;;;;;5.72;2.15;;;;;;;;;;5031888;28;20430;-70
2022/08/07 05:09:13;;;;;;;2.73;2.00;;;;;;;;;;5032200;28;20333;-69
2022/08/07 05:11:43;;;;;;;3.80;1.83;;;;;;;;;;5031750;28;20263;-70
2022/08/07 05:14:12;;;;;;;2.25;1.55;;;;;;;;;;5017949;28;20593;-70
2022/08/07 05:16:40;;;;;;;2.00;1.50;;;;;;;;;;5012124;28;20034;-70
2022/08/07 05:19:15;;;;;;;1.55;1.38;;;;;;;;;;5012086;28;20491;-70
2022/08/07 05:21:46;;;;;;;1.40;1.20;;;;;;;;;;5011881;28;20022;-70
2022/08/07 05:24:15;;;;;;;1.25;1.10;;;;;;;;;;5011997;28;20030;-70
2022/08/07 05:26:41;;;;;;;2.17;1.52;;;;;;;;;;5012134;28;20037;-70
2022/08/07 05:29:09;;;;;;;1.83;1.30;;;;;;;;;;4999080;28;20088;-70
2022/08/07 05:31:37;;;;;;;1.58;1.42;;;;;;;;;;4992129;28;20030;-69
2022/08/07 05:34:06;;;;;;;1.27;1.10;;;;;;;;;;4987910;28;20482;-70
2022/08/07 05:36:33;;;;;;;2.70;1.02;;;;;;;;;;5011929;28;20534;-69
2022/08/07 05:39:00;;;;;;;1.50;0.93;;;;;;;;;;5011910;28;20044;-70
2022/08/07 05:41:26;;;;;;;1.30;1.20;;;;;;;;;;5011450;28;20036;-70
2022/08/07 05:43:54;;;;;;;1.30;1.10;;;;;;;;;;5011485;28;20026;-70
2022/08/07 05:46:21;;;;;;;1.13;1.00;;;;;;;;;;5011336;28;20057;-70
2022/08/07 05:48:51;;;;;;;1.23;0.90;;;;;;;;;;5011433;28;20030;-70
2022/08/07 05:51:17;;;;;;;0.88;0.88;;;;;;;;;;5011093;28;20030;-69
2022/08/07 05:53:43;;;;;;;1.83;0.95;;;;;;;;;;5011583;28;20334;-70
2022/08/07 05:56:11;;;;;;;1.27;1.17;;;;;;;;;;5009679;28;20033;-70
2022/08/07 05:58:37;;;;;;;0.90;0.90;;;;;;;;;;5010385;28;20792;-70
2022/08/07 06:01:05;;;;;;;1.80;1.10;;;;;;;;;;5010917;28;20022;-70
2022/08/07 06:03:32;;;;;;;2.47;1.20;;;;;;;;;;5011138;28;20026;-69
2022/08/07 06:05:59;;;;;;;0.95;0.90;;;;;;;;;;5011069;28;20056;-70
2022/08/07 06:08:25;;;;;;;1.13;0.70;;;;;;;;;;5004936;28;20026;-69
2022/08/07 06:10:51;;;;;;;2.42;0.80;;;;;;;;;;4998153;28;20015;-70
2022/08/07 06:13:16;;;;;;;0.80;0.80;;;;;;;;;;4991577;28;20022;-69
2022/08/07 06:15:43;;;;;;;1.33;0.80;;;;;;;;;;4991477;28;20026;-70
2022/08/07 06:18:11;;;;;;;1.17;0.93;;;;;;;;;;4991552;28;20660;-70
2022/08/07 06:20:37;;;;;;;2.08;0.82;;;;;;;;;;4991338;28;20034;-69
2022/08/07 06:23:05;;;;;;;1.48;0.60;;;;;;;;;;4991633;28;20041;-69
2022/08/07 06:25:31;;;;;;;1.52;0.70;;;;;;;;;;4991117;28;20508;-69
2022/08/07 06:28:04;;;;;;;0.98;0.73;;;;;;;;;;4991093;28;20116;-70
2022/08/07 06:30:29;;;;;;;2.10;1.00;;;;;;;;;;4990877;28;20077;-69
2022/08/07 06:32:54;;;;;;;0.70;0.60;;;;;;;;;;4991110;28;20072;-68
2022/08/07 06:35:20;;;;;;;0.73;0.60;;;;;;;;;;4997677;28;20052;-69
2022/08/07 06:37:45;;;;;;;1.00;0.70;;;;;;;;;;5010603;28;20034;-69
2022/08/07 06:40:11;;;;;;;1.08;0.52;;;;;;;;;;4996814;28;20087;-69
2022/08/07 06:42:39;;;;;;;1.73;0.80;;;;;;;;;;5003082;28;20394;-68
2022/08/07 06:45:10;;;;;;;0.82;0.60;;;;;;;;;;5006393;28;20625;-70
2022/08/07 06:47:35;;;;;;;0.65;0.52;;;;;;;;;;5006999;28;20044;-69
2022/08/07 06:50:01;;;;;;;1.83;0.60;;;;;;;;;;5006657;28;20025;-69
2022/08/07 06:52:31;;;;;;;1.55;0.85;;;;;;;;;;5006698;28;20153;-69
2022/08/07 06:54:59;;;;;;;0.60;0.60;;;;;;;;;;5005795;28;20919;-69
2022/08/07 06:57:25;;;;;;;2.83;0.77;;;;;;;;;;5006690;28;20042;-69
2022/08/07 06:59:51;;;;;;;1.25;0.77;;;;;;;;;;5001098;28;20026;-70
2022/08/07 07:02:20;;;;;;;0.65;0.60;;;;;;;;;;5000407;28;20037;-69
2022/08/07 07:04:46;;;;;;;0.80;0.80;;;;;;;;;;4995257;28;20559;-69
2022/08/07 07:07:12;;;;;;;0.70;0.70;;;;;;;;;;4990433;28;20467;-68
2022/08/07 07:09:44;;;;;;;0.63;0.63;;;;;;;;;;4990034;28;20080;-69
2022/08/07 07:12:25;;;;;;;0.90;0.80;;;;;;;;;;4990448;28;20502;-68
2022/08/07 07:15:06;;;;;;;1.30;0.70;;;;;;;;;;4990664;28;20570;-68
2022/08/07 07:17:36;;;;;;;1.58;0.75;;;;;;;;;;4990737;28;20030;-69
2022/08/07 07:20:05;;;;;;;1.30;0.77;;;;;;;;;;4989923;28;20133;-69
2022/08/07 07:22:31;;;;;;;1.00;0.80;;;;;;;;;;4989833;28;20026;-69
2022/08/07 07:24:59;;;;;;;1.17;0.73;;;;;;;;;;4990164;28;20037;-69
2022/08/07 07:27:30;;;;;;;0.82;0.70;;;;;;;;;;4990047;28;20040;-71
2022/08/07 07:29:59;;;;;;;2.88;0.80;;;;;;;;;;4989833;28;20034;-69
2022/08/07 07:32:25;;;;;;;2.25;0.90;;;;;;;;;;4996864;28;20109;-70
2022/08/07 07:34:54;;;;;;;1.27;0.90;;;;;;;;;;4989628;28;20528;-69
2022/08/07 07:37:21;;;;;;;1.55;0.98;;;;;;;;;;4989980;28;20049;-68
2022/08/07 07:39:48;;;;;;;1.02;0.70;;;;;;;;;;5003010;28;20056;-69
2022/08/07 07:42:16;;;;;;;1.25;0.65;;;;;;;;;;4998443;28;20030;-68
2022/08/07 07:44:44;;;;;;;0.60;0.60;;;;;;;;;;4989677;28;20042;-69
2022/08/07 07:47:11;;;;;;;0.90;0.68;;;;;;;;;;4989438;28;20558;-69
2022/08/07 07:49:38;;;;;;;0.80;0.80;;;;;;;;;;4989345;28;20058;-69
2022/08/07 07:52:04;;;;;;;0.90;0.70;;;;;;;;;;4989645;28;20606;-69
2022/08/07 07:54:30;;;;;;;0.70;0.60;;;;;;;;;;4989526;28;20139;-69
2022/08/07 07:56:57;;;;;;;1.27;0.70;;;;;;;;;;4989625;28;20057;-69
2022/08/07 07:59:24;;;;;;;2.47;0.80;;;;;;;;;;4989549;28;20058;-69
2022/08/07 08:01:50;;;;;;;1.63;0.70;;;;;;;;;;4989038;28;20041;-69
2022/08/07 08:04:18;;;;;;;1.10;0.82;;;;;;;;;;4989172;28;20022;-68
2022/08/07 08:06:45;;;;;;;1.85;0.70;;;;;;;;;;4989389;28;20022;-69
2022/08/07 08:09:13;;;;;;;1.33;0.70;;;;;;;;;;4988781;28;20455;-68
2022/08/07 08:11:38;;;;;;;1.02;0.60;;;;;;;;;;4989079;28;20034;-69
2022/08/07 08:14:04;;;;;;;1.77;0.77;;;;;;;;;;4990010;28;20041;-68
2022/08/07 08:16:41;;;;;;;0.50;0.50;;;;;;;;;;5008705;28;20144;-70
2022/08/07 08:19:12;;;;;;;2.38;0.82;;;;;;;;;;5008604;28;20075;-68
2022/08/07 08:27:14;;;;;;;0.88;0.60;;;;;;;;;;5009257;28;20099;-69
2022/08/07 08:29:50;;;;;;;1.23;0.50;;;;;;;;;;5008444;28;20117;-67
2022/08/07 08:32:19;;;;;;;1.13;0.50;;;;;;;;;;5008491;28;20022;-69
2022/08/07 08:34:47;;;;;;;1.27;0.60;;;;;;;;;;5007820;28;20026;-71
2022/08/07 08:37:14;;;;;;;0.85;0.57;;;;;;;;;;5008860;28;20435;-71
2022/08/07 08:39:42;;;;;;;0.95;0.50;;;;;;;;;;5008494;28;20387;-70
2022/08/07 08:42:18;;;;;;;2.28;0.50;;;;;;;;;;5008708;28;20041;-71
2022/08/07 08:45:06;;;;;;;0.90;0.52;;;;;;;;;;5008377;28;20080;-74
2022/08/07 08:48:29;;;;;;;2.13;0.80;;;;;;;;;;5006156;28;20438;-72
2022/08/07 08:51:00;;;;;;;0.60;0.50;;;;;;;;;;4908763;29;20159;-72
2022/08/07 08:53:45;;;;;;;0.85;0.52;;;;;;;;;;4909240;29;20103;-71
2022/08/07 08:56:19;;;;;;;1.13;0.50;;;;;;;;;;4971576;28;20042;-71
2022/08/07 08:59:10;;;;;;;0.73;0.40;;;;;;;;;;5008435;28;20125;-73
2022/08/07 09:01:42;;;;;;;1.92;0.77;;;;;;;;;;5008027;28;20025;-73
2022/08/07 09:04:24;;;;;;;1.77;0.65;;;;;;;;;;5008148;28;20037;-72
2022/08/07 09:07:09;;;;;;;0.90;0.50;;;;;;;;;;5008464;28;20104;-72
2022/08/07 09:09:47;;;;;;;1.40;0.50;;;;;;;;;;5008237;28;20403;-70
2022/08/07 09:12:45;;;;;;;1.40;0.43;;;;;;;;;;5008319;28;20088;-71
2022/08/07 09:15:47;;;;;;;1.02;0.45;;;;;;;;;;5007873;28;20030;-73
2022/08/07 09:18:25;;;;;;;0.50;0.50;;;;;;;;;;5007992;28;20069;-73
2022/08/07 09:21:27;;;;;;;2.30;0.98;;;;;;;;;;4994939;28;20530;-71
2022/08/07 09:24:19;;;;;;;1.05;0.88;;;;;;;;;;4988360;28;20049;-70
2022/08/07 09:26:59;;;;;;;1.95;0.73;;;;;;;;;;4988454;28;20399;-72
2022/08/07 09:29:51;;;;;;;0.70;0.50;;;;;;;;;;4988216;28;20034;-72
2022/08/07 09:32:30;;;;;;;1.65;0.65;;;;;;;;;;4988244;28;20026;-72
2022/08/07 09:35:31;;;;;;;1.25;0.68;;;;;;;;;;4988459;28;20061;-72
2022/08/07 09:38:10;;;;;;;0.60;0.60;;;;;;;;;;4981663;28;20039;-72
2022/08/07 09:41:13;;;;;;;2.28;0.65;;;;;;;;;;4988624;28;20030;-71
2022/08/07 09:44:04;;;;;;;0.75;0.65;;;;;;;;;;4988822;28;20029;-71
2022/08/07 09:47:01;;;;;;;0.63;0.57;;;;;;;;;;4992197;28;20060;-71
2022/08/07 09:49:38;;;;;;;0.45;0.45;;;;;;;;;;5009437;28;20112;-71
2022/08/07 09:52:25;;;;;;;1.27;0.50;;;;;;;;;;5010184;28;20468;-72
2022/08/07 09:55:08;;;;;;;0.73;0.50;;;;;;;;;;5009546;28;20435;-70
2022/08/07 09:57:51;;;;;;;1.45;0.50;;;;;;;;;;5009946;28;20029;-72
2022/08/07 10:00:21;;;;;;;2.83;1.65;;;;;;;;;;5010574;28;20457;-70
2022/08/07 10:03:01;;;;;;;2.20;0.50;;;;;;;;;;5010979;28;20152;-74
2022/08/07 10:05:51;;;;;;;2.45;0.60;;;;;;;;;;5023395;28;20029;-73
2022/08/07 10:08:43;;;;;;;0.63;0.60;;;;;;;;;;5030937;28;20025;-71
2022/08/07 10:11:45;;;;;;;1.55;0.63;;;;;;;;;;5030406;28;20098;-72
2022/08/07 10:14:32;;;;;;;0.75;0.50;;;;;;;;;;5030368;28;20025;-73
2022/08/07 10:17:35;;;;;;;0.77;0.50;;;;;;;;;;5030586;28;20099;-72
2022/08/07 10:20:30;;;;;;;1.45;0.50;;;;;;;;;;5030416;28;20029;-72
2022/08/07 10:23:02;;;;;;;0.68;0.60;;;;;;;;;;5030314;28;20421;-70
2022/08/07 10:25:43;;;;;;;0.95;0.50;;;;;;;;;;5013048;28;20029;-73
2022/08/07 10:28:11;;;;;;;0.70;0.70;;;;;;;;;;5030592;28;20033;-71
2022/08/07 10:30:49;;;;;;;2.05;0.50;;;;;;;;;;5030325;28;20029;-72
2022/08/07 10:33:43;;;;;;;1.25;0.50;;;;;;;;;;5030372;28;20034;-72
2022/08/07 10:36:27;;;;;;;1.38;0.70;;;;;;;;;;5030315;28;20037;-71
2022/08/07 10:39:22;;;;;;;1.60;0.70;;;;;;;;;;5030412;28;20025;-72
2022/08/07 10:42:02;;;;;;;0.40;0.40;;;;;;;;;;5030166;28;20433;-71
2022/08/07 10:44:50;;;;;;;1.75;0.60;;;;;;;;;;5030090;28;20472;-71
2022/08/07 10:47:28;;;;;;;1.33;0.70;;;;;;;;;;5030334;28;20048;-72
2022/08/07 10:50:03;;;;;;;0.88;0.55;;;;;;;;;;5030027;28;20033;-72
2022/08/07 10:52:32;;;;;;;0.80;0.50;;;;;;;;;;5030657;28;20653;-72
2022/08/07 10:55:28;;;;;;;0.98;0.60;;;;;;;;;;5030209;28;20032;-71
2022/08/07 10:58:14;;;;;;;0.93;0.60;;;;;;;;;;5029523;28;20022;-72
2022/08/07 11:00:56;;;;;;;0.57;0.57;;;;;;;;;;5029809;28;20479;-72
2022/08/07 11:03:47;;;;;;;0.68;0.60;;;;;;;;;;5051928;22;20048;-72
2022/08/07 11:06:20;;;;;;;0.50;0.50;;;;;;;;;;4992009;28;20033;-73
2022/08/07 11:09:02;;;;;;;1.83;0.80;;;;;;;;;;5030473;28;20021;-74
2022/08/07 11:11:35;;;;;;;1.23;0.88;;;;;;;;;;5029381;28;20032;-72
2022/08/07 11:14:18;;;;;;;1.25;0.50;;;;;;;;;;5029675;28;20030;-73
2022/08/07 11:16:52;;;;;;;0.80;0.60;;;;;;;;;;5029626;28;20026;-72
2022/08/07 11:19:23;;;;;;;0.55;0.52;;;;;;;;;;5029552;28;20034;-72
2022/08/07 11:21:48;;;;;;;0.77;0.50;;;;;;;;;;5029739;28;20025;-73
2022/08/07 11:24:21;;;;;;;1.23;0.63;;;;;;;;;;5011731;28;20028;-72
2022/08/07 11:26:53;;;;;;;1.27;0.60;;;;;;;;;;5029553;28;20025;-72
2022/08/07 11:29:38;;;;;;;1.17;0.70;;;;;;;;;;5029877;28;20036;-73
2022/08/07 11:32:09;;;;;;;0.70;0.57;;;;;;;;;;5029260;28;20060;-71
2022/08/07 11:34:57;;;;;;;0.63;0.60;;;;;;;;;;5029269;28;20029;-72
2022/08/07 11:37:40;;;;;;;1.00;0.40;;;;;;;;;;5029383;28;20095;-71
2022/08/07 11:40:14;;;;;;;0.93;0.60;;;;;;;;;;5028777;28;20477;-73
2022/08/07 11:42:53;;;;;;;3.03;0.75;;;;;;;;;;5029036;28;20068;-73
2022/08/07 11:45:33;;;;;;;1.77;0.60;;;;;;;;;;5029320;28;20036;-73
2022/08/07 11:48:21;;;;;;;0.60;0.60;;;;;;;;;;5029473;28;20032;-73
2022/08/07 11:51:17;;;;;;;0.60;0.60;;;;;;;;;;4973789;28;20571;-72
2022/08/07 11:54:11;;;;;;;1.58;0.70;;;;;;;;;;5028930;28;20029;-73
2022/08/07 11:56:50;;;;;;;1.85;0.70;;;;;;;;;;5028833;28;20390;-73
2022/08/07 11:59:43;;;;;;;0.68;0.68;;;;;;;;;;5028858;28;20483;-74
2022/08/07 12:02:11;;;;;;;2.75;0.70;;;;;;;;;;5028982;28;20037;-74
2022/08/07 12:05:00;;;;;;;1.50;0.73;;;;;;;;;;5028722;28;20029;-72
2022/08/07 12:07:35;;;;;;;1.20;0.60;;;;;;;;;;5028878;28;20083;-72
2022/08/07 12:10:18;;;;;;;1.20;0.60;;;;;;;;;;5027796;28;20033;-71
2022/08/07 12:12:52;;;;;;;0.60;0.57;;;;;;;;;;5028582;28;20491;-71
2022/08/07 12:15:26;;;;;;;1.25;0.70;;;;;;;;;;5028891;28;20048;-72
2022/08/07 12:17:59;;;;;;;2.17;0.85;;;;;;;;;;5028448;28;20071;-73
2022/08/07 12:20:44;;;;;;;1.52;0.60;;;;;;;;;;5027922;28;20033;-74
2022/08/07 12:23:45;;;;;;;0.80;0.63;;;;;;;;;;5028116;28;20104;-73
2022/08/07 12:26:23;;;;;;;0.85;0.70;;;;;;;;;;5028226;28;20517;-73
2022/08/07 12:28:57;;;;;;;0.90;0.75;;;;;;;;;;5028521;28;20450;-73
2022/08/07 12:31:40;;;;;;;0.80;0.70;;;;;;;;;;5028023;28;20030;-71
2022/08/07 12:34:07;;;;;;;0.82;0.65;;;;;;;;;;5028390;28;20022;-70
2022/08/07 12:36:35;;;;;;;2.88;0.60;;;;;;;;;;5028155;28;20025;-72
2022/08/07 12:39:03;;;;;;;1.20;0.70;;;;;;;;;;5028236;28;20047;-71
2022/08/07 12:41:29;;;;;;;0.65;0.65;;;;;;;;;;5027964;28;20034;-72
2022/08/07 12:43:58;;;;;;;1.10;0.80;;;;;;;;;;5028131;28;20040;-73
2022/08/07 12:46:34;;;;;;;0.93;0.70;;;;;;;;;;5027797;28;20096;-72
2022/08/07 12:49:14;;;;;;;0.93;0.70;;;;;;;;;;5028181;28;20041;-73
2022/08/07 12:51:45;;;;;;;0.70;0.57;;;;;;;;;;5028012;28;20042;-72
2022/08/07 12:54:36;;;;;;;1.13;0.70;;;;;;;;;;5018207;28;20052;-73
2022/08/07 12:57:04;;;;;;;1.33;0.70;;;;;;;;;;4974925;28;20045;-72
2022/08/07 12:59:32;;;;;;;0.80;0.80;;;;;;;;;;5008245;28;20026;-71
2022/08/07 13:02:20;;;;;;;3.33;0.70;;;;;;;;;;5008189;28;20632;-72
2022/08/07 13:05:08;;;;;;;1.27;0.73;;;;;;;;;;5024634;28;20022;-78
2022/08/07 13:07:52;;;;;;;0.95;0.73;;;;;;;;;;5032166;28;20398;-73
2022/08/07 13:10:36;;;;;;;0.73;0.73;;;;;;;;;;5047356;28;20033;-73
2022/08/07 13:13:27;;;;;;;1.90;0.70;;;;;;;;;;5015734;28;20164;-69
2022/08/07 13:16:28;;;;;;;0.90;0.70;;;;;;;;;;5030671;28;20171;-71
2022/08/07 13:19:31;;;;;;;0.68;0.68;;;;;;;;;;5028075;28;20017;-72
2022/08/07 13:22:32;;;;;;;1.40;0.82;;;;;;;;;;5031592;28;20415;-71
2022/08/07 13:25:38;;;;;;;0.90;0.80;;;;;;;;;;5032625;28;20517;-69
2022/08/07 13:28:18;;;;;;;0.82;0.80;;;;;;;;;;4982134;28;20034;-70
2022/08/07 13:30:52;;;;;;;0.60;0.60;;;;;;;;;;5011718;28;20030;-72
2022/08/07 13:33:23;;;;;;;0.65;0.65;;;;;;;;;;5019341;28;20025;-71
2022/08/07 13:36:12;;;;;;;1.23;0.70;;;;;;;;;;5043405;28;20549;-70
2022/08/07 13:38:40;;;;;;;0.80;0.70;;;;;;;;;;5051184;28;20067;-72
2022/08/07 13:41:29;;;;;;;0.93;0.70;;;;;;;;;;5050442;28;20437;-71
2022/08/07 13:43:59;;;;;;;1.05;0.80;;;;;;;;;;5019064;28;20493;-71
2022/08/07 13:46:30;;;;;;;0.70;0.70;;;;;;;;;;5042443;28;20681;-69
2022/08/07 13:48:59;;;;;;;1.73;0.68;;;;;;;;;;5051107;28;20524;-70
2022/08/07 13:51:26;;;;;;;1.38;0.70;;;;;;;;;;5050699;28;20489;-76
2022/08/07 13:53:56;;;;;;;1.10;0.80;;;;;;;;;;5037514;28;20119;-71
2022/08/07 13:56:24;;;;;;;0.88;0.80;;;;;;;;;;5033577;28;20028;-70
2022/08/07 13:59:01;;;;;;;1.02;0.90;;;;;;;;;;5050934;28;20021;-71
2022/08/07 14:01:28;;;;;;;1.80;0.70;;;;;;;;;;5050784;28;20074;-70
2022/08/07 14:03:54;;;;;;;0.88;0.70;;;;;;;;;;5042993;28;20394;-70
2022/08/07 14:06:21;;;;;;;1.05;0.82;;;;;;;;;;5042595;28;20039;-70
2022/08/07 14:08:50;;;;;;;0.68;0.68;;;;;;;;;;5050864;28;20030;-69
2022/08/07 14:11:19;;;;;;;0.88;0.80;;;;;;;;;;5050611;28;20569;-71
2022/08/07 14:13:54;;;;;;;1.15;0.95;;;;;;;;;;5043577;28;20459;-72
2022/08/07 14:16:24;;;;;;;0.80;0.80;;;;;;;;;;5042299;28;20203;-70
2022/08/07 14:18:52;;;;;;;0.80;0.80;;;;;;;;;;5050470;28;20391;-74
2022/08/07 14:21:23;;;;;;;2.83;1.00;;;;;;;;;;5050491;28;20029;-71
2022/08/07 14:23:55;;;;;;;0.70;0.70;;;;;;;;;;5043783;28;20037;-70
2022/08/07 14:26:29;;;;;;;1.08;0.90;;;;;;;;;;5042097;28;20482;-72
2022/08/07 14:28:56;;;;;;;1.05;0.82;;;;;;;;;;5050419;28;20033;-70
2022/08/07 14:31:24;;;;;;;1.48;0.80;;;;;;;;;;5049074;28;20031;-70
2022/08/07 14:33:51;;;;;;;1.13;0.95;;;;;;;;;;5043884;28;20414;-73
2022/08/07 14:36:18;;;;;;;1.20;0.90;;;;;;;;;;5042175;28;20024;-72
2022/08/07 14:38:46;;;;;;;0.88;0.77;;;;;;;;;;5050452;28;20029;-70
2022/08/07 14:41:21;;;;;;;0.80;0.80;;;;;;;;;;5050172;28;20025;-73
2022/08/07 14:43:48;;;;;;;2.45;0.85;;;;;;;;;;5033715;28;20029;-70
2022/08/07 14:46:17;;;;;;;1.35;0.90;;;;;;;;;;5039257;28;20029;-73
2022/08/07 14:48:45;;;;;;;4.00;0.90;;;;;;;;;;5050352;28;20100;-72
2022/08/07 14:51:19;;;;;;;1.20;0.77;;;;;;;;;;5049829;28;20471;-72
2022/08/07 14:53:47;;;;;;;0.93;0.70;;;;;;;;;;5046020;28;20045;-70
2022/08/07 14:56:16;;;;;;;2.00;1.10;;;;;;;;;;5039127;28;20390;-72
2022/08/07 14:58:47;;;;;;;1.13;0.90;;;;;;;;;;5049894;28;20474;-74
2022/08/07 15:01:16;;;;;;;1.70;0.88;;;;;;;;;;5049681;28;20076;-72
2022/08/07 15:03:43;;;;;;;0.90;0.80;;;;;;;;;;5045864;28;20064;-74
2022/08/07 15:06:10;;;;;;;0.93;0.93;;;;;;;;;;5040839;28;20569;-71
2022/08/07 15:08:42;;;;;;;1.08;0.88;;;;;;;;;;5031873;28;20024;-73
2022/08/07 15:11:09;;;;;;;;;;;;;;;;;;5049889;28;20035;-71
2022/08/07 15:13:44;;;;;;;1.08;0.98;;;;;;;;;;5049379;28;19958;-72
2022/08/07 15:16:10;;;;;;;1.20;1.08;;;;;;;;;;5035235;28;20029;-71
2022/08/07 15:18:41;;;;;;;1.02;0.90;;;;;;;;;;5049487;28;20506;-71
2022/08/07 15:21:14;;;;;;;1.13;0.80;;;;;;;;;;5049342;28;20402;-72